sensor_id;sensor_type;location;lat;lon;timestamp;pressure;altitude;pressure_sealevel;temperature;humidity
60170;BME280;46042;49.444;6.862;2022-07-18T00:02:08;99407.31;;;16.28;51.33
60170;BME280;46042;49.444;6.862;2022-07-18T00:04:35;99409.38;;;16.24;51.82
60170;BME280;46042;49.444;6.862;2022-07-18T00:07:01;99415.78;;;16.21;52.90
60170;BME280;46042;49.444;6.862;2022-07-18T00:09:28;99413.72;;;16.14;52.93
60170;BME280;46042;49.444;6.862;2022-07-18T00:12:01;99408.75;;;16.09;52.19
60170;BME280;46042;49.444;6.862;2022-07-18T00:14:28;99410.69;;;16.07;52.53
60170;BME280;46042;49.444;6.862;2022-07-18T00:16:54;99412.00;;;16.01;53.35
60170;BME280;46042;49.444;6.862;2022-07-18T00:19:21;99411.13;;;15.89;54.17
60170;BME280;46042;49.444;6.862;2022-07-18T00:21:48;99410.97;;;15.91;53.33
60170;BME280;46042;49.444;6.862;2022-07-18T00:24:14;99420.03;;;15.88;54.10
60170;BME280;46042;49.444;6.862;2022-07-18T00:26:41;99413.03;;;15.87;53.64
60170;BME280;46042;49.444;6.862;2022-07-18T00:29:08;99402.72;;;15.83;53.38
60170;BME280;46042;49.444;6.862;2022-07-18T00:31:35;99404.75;;;15.79;53.53
60170;BME280;46042;49.444;6.862;2022-07-18T00:34:02;99405.72;;;15.78;54.07
60170;BME280;46042;49.444;6.862;2022-07-18T00:36:29;99408.38;;;15.78;53.16
60170;BME280;46042;49.444;6.862;2022-07-18T00:38:57;99410.41;;;15.74;53.01
60170;BME280;46042;49.444;6.862;2022-07-18T00:41:24;99412.91;;;15.64;54.31
60170;BME280;46042;49.444;6.862;2022-07-18T00:43:51;99409.78;;;15.59;54.73
60170;BME280;46042;49.444;6.862;2022-07-18T00:46:26;99414.25;;;15.59;54.70
60170;BME280;46042;49.444;6.862;2022-07-18T00:48:53;99410.97;;;15.55;54.18
60170;BME280;46042;49.444;6.862;2022-07-18T00:51:21;99412.03;;;15.53;54.22
60170;BME280;46042;49.444;6.862;2022-07-18T00:53:48;99409.63;;;15.49;54.98
60170;BME280;46042;49.444;6.862;2022-07-18T00:56:19;99401.47;;;15.40;56.03
60170;BME280;46042;49.444;6.862;2022-07-18T00:58:47;99406.06;;;15.38;55.83
60170;BME280;46042;49.444;6.862;2022-07-18T01:01:13;99403.97;;;15.30;55.87
60170;BME280;46042;49.444;6.862;2022-07-18T01:03:59;99404.94;;;15.29;55.04
60170;BME280;46042;49.444;6.862;2022-07-18T01:06:25;99407.81;;;15.26;56.05
60170;BME280;46042;49.444;6.862;2022-07-18T01:08:52;99401.78;;;15.24;56.03
60170;BME280;46042;49.444;6.862;2022-07-18T01:11:19;99399.31;;;15.20;56.55
60170;BME280;46042;49.444;6.862;2022-07-18T01:13:48;99399.56;;;15.17;56.22
60170;BME280;46042;49.444;6.862;2022-07-18T01:16:16;99396.16;;;15.15;56.90
60170;BME280;46042;49.444;6.862;2022-07-18T01:18:45;99393.84;;;15.11;56.80
60170;BME280;46042;49.444;6.862;2022-07-18T01:21:12;99393.25;;;15.07;56.54
60170;BME280;46042;49.444;6.862;2022-07-18T01:23:39;99388.13;;;15.04;57.03
60170;BME280;46042;49.444;6.862;2022-07-18T01:26:06;99391.16;;;14.99;55.67
60170;BME280;46042;49.444;6.862;2022-07-18T01:28:33;99389.56;;;14.97;56.16
60170;BME280;46042;49.444;6.862;2022-07-18T01:31:00;99389.38;;;14.87;57.35
60170;BME280;46042;49.444;6.862;2022-07-18T01:33:26;99390.34;;;14.86;56.63
60170;BME280;46042;49.444;6.862;2022-07-18T01:35:53;99392.25;;;14.84;56.70
60170;BME280;46042;49.444;6.862;2022-07-18T01:38:19;99392.66;;;14.77;57.50
60170;BME280;46042;49.444;6.862;2022-07-18T01:40:46;99391.09;;;14.75;57.86
60170;BME280;46042;49.444;6.862;2022-07-18T01:43:18;99380.69;;;14.72;57.31
60170;BME280;46042;49.444;6.862;2022-07-18T01:45:45;99387.16;;;14.68;58.20
60170;BME280;46042;49.444;6.862;2022-07-18T01:48:11;99390.03;;;14.64;58.01
60170;BME280;46042;49.444;6.862;2022-07-18T01:50:38;99391.19;;;14.60;57.79
60170;BME280;46042;49.444;6.862;2022-07-18T01:53:05;99393.22;;;14.57;57.92
60170;BME280;46042;49.444;6.862;2022-07-18T01:55:31;99392.56;;;14.53;57.73
60170;BME280;46042;49.444;6.862;2022-07-18T01:57:58;99400.75;;;14.50;57.69
60170;BME280;46042;49.444;6.862;2022-07-18T02:00:25;99393.09;;;14.45;58.27
60170;BME280;46042;49.444;6.862;2022-07-18T02:02:52;99394.06;;;14.44;57.36
60170;BME280;46042;49.444;6.862;2022-07-18T02:05:18;99390.69;;;14.42;58.06
60170;BME280;46042;49.444;6.862;2022-07-18T02:07:45;99382.84;;;14.41;57.91
60170;BME280;46042;49.444;6.862;2022-07-18T02:10:18;99391.00;;;14.37;58.23
60170;BME280;46042;49.444;6.862;2022-07-18T02:12:45;99390.06;;;14.39;58.74
60170;BME280;46042;49.444;6.862;2022-07-18T02:15:14;99388.69;;;14.33;58.31
60170;BME280;46042;49.444;6.862;2022-07-18T02:17:42;99385.63;;;14.26;59.29
60170;BME280;46042;49.444;6.862;2022-07-18T02:20:11;99387.53;;;14.24;58.71
60170;BME280;46042;49.444;6.862;2022-07-18T02:22:38;99389.53;;;14.20;58.98
60170;BME280;46042;49.444;6.862;2022-07-18T02:25:05;99379.03;;;14.19;59.47
60170;BME280;46042;49.444;6.862;2022-07-18T02:27:32;99376.38;;;14.19;58.93
60170;BME280;46042;49.444;6.862;2022-07-18T02:29:59;99386.25;;;14.17;59.47
60170;BME280;46042;49.444;6.862;2022-07-18T02:32:25;99379.69;;;14.10;59.56
60170;BME280;46042;49.444;6.862;2022-07-18T02:34:52;99379.16;;;14.04;60.37
60170;BME280;46042;49.444;6.862;2022-07-18T02:37:20;99381.38;;;13.98;59.85
60170;BME280;46042;49.444;6.862;2022-07-18T02:39:47;99385.16;;;13.93;60.00
60170;BME280;46042;49.444;6.862;2022-07-18T02:42:14;99379.13;;;13.91;59.59
60170;BME280;46042;49.444;6.862;2022-07-18T02:44:40;99374.91;;;13.89;61.08
60170;BME280;46042;49.444;6.862;2022-07-18T02:47:07;99388.25;;;13.87;60.63
60170;BME280;46042;49.444;6.862;2022-07-18T02:49:34;99390.66;;;13.77;60.66
60170;BME280;46042;49.444;6.862;2022-07-18T02:52:04;99381.03;;;13.76;60.91
60170;BME280;46042;49.444;6.862;2022-07-18T02:54:35;99381.31;;;13.72;60.97
60170;BME280;46042;49.444;6.862;2022-07-18T02:57:02;99378.81;;;13.70;61.00
60170;BME280;46042;49.444;6.862;2022-07-18T02:59:28;99381.44;;;13.70;61.12
60170;BME280;46042;49.444;6.862;2022-07-18T03:01:55;99374.97;;;13.61;61.38
60170;BME280;46042;49.444;6.862;2022-07-18T03:04:23;99380.28;;;13.61;61.48
60170;BME280;46042;49.444;6.862;2022-07-18T03:06:50;99379.69;;;13.56;62.33
60170;BME280;46042;49.444;6.862;2022-07-18T03:09:17;99384.91;;;13.58;61.91
60170;BME280;46042;49.444;6.862;2022-07-18T03:11:44;99389.34;;;13.57;61.13
60170;BME280;46042;49.444;6.862;2022-07-18T03:14:11;99384.25;;;13.54;61.50
60170;BME280;46042;49.444;6.862;2022-07-18T03:16:38;99384.38;;;13.53;61.41
60170;BME280;46042;49.444;6.862;2022-07-18T03:19:04;99386.16;;;13.52;60.85
60170;BME280;46042;49.444;6.862;2022-07-18T03:21:31;99385.63;;;13.47;62.08
60170;BME280;46042;49.444;6.862;2022-07-18T03:23:58;99389.22;;;13.46;61.36
60170;BME280;46042;49.444;6.862;2022-07-18T03:26:24;99393.09;;;13.40;61.64
60170;BME280;46042;49.444;6.862;2022-07-18T03:28:51;99389.69;;;13.38;62.29
60170;BME280;46042;49.444;6.862;2022-07-18T03:31:18;99389.25;;;13.31;62.44
60170;BME280;46042;49.444;6.862;2022-07-18T03:33:44;99391.16;;;13.29;62.44
60170;BME280;46042;49.444;6.862;2022-07-18T03:36:11;99387.53;;;13.30;62.49
60170;BME280;46042;49.444;6.862;2022-07-18T03:38:38;99390.50;;;13.26;63.30
60170;BME280;46042;49.444;6.862;2022-07-18T03:41:10;99386.97;;;13.25;62.34
60170;BME280;46042;49.444;6.862;2022-07-18T03:43:38;99386.97;;;13.25;63.06
60170;BME280;46042;49.444;6.862;2022-07-18T03:46:05;99389.94;;;13.20;62.65
60170;BME280;46042;49.444;6.862;2022-07-18T03:48:33;99397.97;;;13.19;62.95
60170;BME280;46042;49.444;6.862;2022-07-18T03:51:00;99388.63;;;13.13;63.51
60170;BME280;46042;49.444;6.862;2022-07-18T03:53:26;99389.38;;;13.15;62.62
60170;BME280;46042;49.444;6.862;2022-07-18T03:55:53;99393.91;;;13.13;62.75
60170;BME280;46042;49.444;6.862;2022-07-18T03:58:20;99393.28;;;13.09;63.78
60170;BME280;46042;49.444;6.862;2022-07-18T04:00:46;99394.22;;;13.08;63.17
60170;BME280;46042;49.444;6.862;2022-07-18T04:03:14;99406.69;;;13.06;63.56
60170;BME280;46042;49.444;6.862;2022-07-18T04:05:41;99403.22;;;13.06;62.85
60170;BME280;46042;49.444;6.862;2022-07-18T04:08:07;99406.59;;;13.08;63.76
60170;BME280;46042;49.444;6.862;2022-07-18T04:10:34;99403.88;;;13.09;62.86
60170;BME280;46042;49.444;6.862;2022-07-18T04:13:01;99403.75;;;13.11;62.17
60170;BME280;46042;49.444;6.862;2022-07-18T04:15:29;99401.97;;;13.12;63.02
60170;BME280;46042;49.444;6.862;2022-07-18T04:17:56;99407.44;;;13.08;63.53
60170;BME280;46042;49.444;6.862;2022-07-18T04:20:22;99400.56;;;13.06;64.32
60170;BME280;46042;49.444;6.862;2022-07-18T04:22:52;99403.28;;;13.04;64.14
60170;BME280;46042;49.444;6.862;2022-07-18T04:25:20;99404.16;;;13.05;62.90
60170;BME280;46042;49.444;6.862;2022-07-18T04:27:47;99400.56;;;13.06;63.49
60170;BME280;46042;49.444;6.862;2022-07-18T04:30:17;99399.63;;;13.07;63.99
60170;BME280;46042;49.444;6.862;2022-07-18T04:32:44;99398.59;;;13.09;63.91
60170;BME280;46042;49.444;6.862;2022-07-18T04:35:18;99387.13;;;13.09;64.11
60170;BME280;46042;49.444;6.862;2022-07-18T04:37:45;99397.63;;;13.11;63.96
60170;BME280;46042;49.444;6.862;2022-07-18T04:40:11;99390.53;;;13.11;65.81
60170;BME280;46042;49.444;6.862;2022-07-18T04:42:38;99393.09;;;13.13;64.35
60170;BME280;46042;49.444;6.862;2022-07-18T04:45:05;99394.03;;;13.12;65.08
60170;BME280;46042;49.444;6.862;2022-07-18T04:47:32;99394.13;;;13.10;65.30
60170;BME280;46042;49.444;6.862;2022-07-18T04:49:59;99399.13;;;13.15;64.45
60170;BME280;46042;49.444;6.862;2022-07-18T04:52:25;99400.06;;;13.14;65.61
60170;BME280;46042;49.444;6.862;2022-07-18T04:54:52;99398.84;;;13.19;65.18
60170;BME280;46042;49.444;6.862;2022-07-18T04:57:19;99393.97;;;13.26;64.31
60170;BME280;46042;49.444;6.862;2022-07-18T04:59:46;99403.31;;;13.32;64.08
60170;BME280;46042;49.444;6.862;2022-07-18T05:02:12;99400.44;;;13.35;64.32
60170;BME280;46042;49.444;6.862;2022-07-18T05:04:39;99399.13;;;13.42;63.96
60170;BME280;46042;49.444;6.862;2022-07-18T05:07:06;99404.25;;;13.45;63.32
60170;BME280;46042;49.444;6.862;2022-07-18T05:09:33;99396.75;;;13.52;63.04
60170;BME280;46042;49.444;6.862;2022-07-18T05:12:01;99395.38;;;13.59;63.52
60170;BME280;46042;49.444;6.862;2022-07-18T05:14:28;99398.06;;;13.72;63.24
60170;BME280;46042;49.444;6.862;2022-07-18T05:16:54;99402.72;;;13.82;61.93
60170;BME280;46042;49.444;6.862;2022-07-18T05:19:21;99406.34;;;13.93;62.69
60170;BME280;46042;49.444;6.862;2022-07-18T05:21:48;99398.44;;;14.06;62.29
60170;BME280;46042;49.444;6.862;2022-07-18T05:24:14;99394.41;;;14.14;62.69
60170;BME280;46042;49.444;6.862;2022-07-18T05:26:41;99390.59;;;14.18;62.27
60170;BME280;46042;49.444;6.862;2022-07-18T05:29:08;99387.41;;;14.26;62.08
60170;BME280;46042;49.444;6.862;2022-07-18T05:31:35;99388.25;;;14.39;62.72
60170;BME280;46042;49.444;6.862;2022-07-18T05:34:02;99391.28;;;14.59;61.49
60170;BME280;46042;49.444;6.862;2022-07-18T05:36:28;99390.38;;;14.73;60.65
60170;BME280;46042;49.444;6.862;2022-07-18T05:38:55;99392.31;;;14.95;61.32
60170;BME280;46042;49.444;6.862;2022-07-18T05:41:22;99387.72;;;15.10;61.71
60170;BME280;46042;49.444;6.862;2022-07-18T05:43:49;99392.00;;;15.24;60.59
60170;BME280;46042;49.444;6.862;2022-07-18T05:46:15;99379.75;;;15.34;60.17
60170;BME280;46042;49.444;6.862;2022-07-18T05:48:43;99380.50;;;15.48;59.55
60170;BME280;46042;49.444;6.862;2022-07-18T05:51:10;99372.34;;;15.62;58.67
60170;BME280;46042;49.444;6.862;2022-07-18T05:53:37;99380.38;;;15.74;59.00
60170;BME280;46042;49.444;6.862;2022-07-18T05:56:04;99383.78;;;15.87;59.90
60170;BME280;46042;49.444;6.862;2022-07-18T05:58:31;99392.91;;;16.07;59.94
60170;BME280;46042;49.444;6.862;2022-07-18T06:00:58;99384.47;;;16.25;58.31
60170;BME280;46042;49.444;6.862;2022-07-18T06:03:25;99380.63;;;16.41;63.47
60170;BME280;46042;49.444;6.862;2022-07-18T06:05:51;99384.16;;;16.53;62.15
60170;BME280;46042;49.444;6.862;2022-07-18T06:08:25;99383.97;;;16.77;61.93
60170;BME280;46042;49.444;6.862;2022-07-18T06:10:52;99385.19;;;16.96;60.08
60170;BME280;46042;49.444;6.862;2022-07-18T06:13:19;99387.22;;;17.15;61.11
60170;BME280;46042;49.444;6.862;2022-07-18T06:15:45;99391.28;;;17.30;58.56
60170;BME280;46042;49.444;6.862;2022-07-18T06:18:12;99381.75;;;17.49;59.71
60170;BME280;46042;49.444;6.862;2022-07-18T06:20:39;99375.59;;;17.70;59.26
60170;BME280;46042;49.444;6.862;2022-07-18T06:23:06;99377.03;;;17.95;58.30
60170;BME280;46042;49.444;6.862;2022-07-18T06:25:32;99375.09;;;18.18;58.24
60170;BME280;46042;49.444;6.862;2022-07-18T06:27:59;99375.06;;;18.40;56.34
60170;BME280;46042;49.444;6.862;2022-07-18T06:30:26;99370.53;;;18.61;58.41
60170;BME280;46042;49.444;6.862;2022-07-18T06:32:52;99371.56;;;18.80;56.05
60170;BME280;46042;49.444;6.862;2022-07-18T06:35:19;99374.03;;;19.03;56.15
60170;BME280;46042;49.444;6.862;2022-07-18T06:37:46;99366.47;;;19.28;53.12
60170;BME280;46042;49.444;6.862;2022-07-18T06:40:13;99360.59;;;19.54;54.03
60170;BME280;46042;49.444;6.862;2022-07-18T06:42:39;99362.50;;;19.81;54.67
60170;BME280;46042;49.444;6.862;2022-07-18T06:45:07;99359.81;;;20.11;51.77
60170;BME280;46042;49.444;6.862;2022-07-18T06:47:38;99354.25;;;20.32;48.78
60170;BME280;46042;49.444;6.862;2022-07-18T06:50:05;99356.22;;;20.58;47.71
60170;BME280;46042;49.444;6.862;2022-07-18T06:52:32;99359.19;;;20.93;52.85
60170;BME280;46042;49.444;6.862;2022-07-18T06:54:59;99360.72;;;21.13;48.15
60170;BME280;46042;49.444;6.862;2022-07-18T06:57:27;99367.47;;;21.54;49.89
60170;BME280;46042;49.444;6.862;2022-07-18T06:59:54;99365.16;;;21.77;47.13
60170;BME280;46042;49.444;6.862;2022-07-18T07:02:25;99370.31;;;21.97;43.66
60170;BME280;46042;49.444;6.862;2022-07-18T07:04:52;99357.09;;;22.22;48.03
60170;BME280;46042;49.444;6.862;2022-07-18T07:07:18;99363.31;;;22.57;48.40
60170;BME280;46042;49.444;6.862;2022-07-18T07:09:45;99358.41;;;22.87;48.43
60170;BME280;46042;49.444;6.862;2022-07-18T07:12:12;99361.47;;;23.17;45.91
60170;BME280;46042;49.444;6.862;2022-07-18T07:14:39;99352.78;;;23.48;46.23
60170;BME280;46042;49.444;6.862;2022-07-18T07:17:05;99347.75;;;23.78;45.59
60170;BME280;46042;49.444;6.862;2022-07-18T07:19:32;99345.88;;;24.04;42.91
60170;BME280;46042;49.444;6.862;2022-07-18T07:21:59;99340.41;;;24.37;44.81
60170;BME280;46042;49.444;6.862;2022-07-18T07:24:26;99345.13;;;24.75;43.87
60170;BME280;46042;49.444;6.862;2022-07-18T07:26:52;99337.06;;;25.06;42.85
60170;BME280;46042;49.444;6.862;2022-07-18T07:29:22;99343.13;;;25.32;39.09
60170;BME280;46042;49.444;6.862;2022-07-18T07:31:48;99345.00;;;24.99;34.42
60170;BME280;46042;49.444;6.862;2022-07-18T07:34:15;99347.06;;;25.44;42.36
60170;BME280;46042;49.444;6.862;2022-07-18T07:36:42;99344.41;;;25.82;38.71
60170;BME280;46042;49.444;6.862;2022-07-18T07:39:08;99341.38;;;26.16;43.99
60170;BME280;46042;49.444;6.862;2022-07-18T07:41:35;99333.44;;;26.14;29.40
60170;BME280;46042;49.444;6.862;2022-07-18T07:44:02;99338.00;;;26.13;28.32
60170;BME280;46042;49.444;6.862;2022-07-18T07:46:29;99336.63;;;26.48;29.56
60170;BME280;46042;49.444;6.862;2022-07-18T07:48:55;99335.78;;;26.62;27.12
60170;BME280;46042;49.444;6.862;2022-07-18T07:51:22;99339.94;;;26.80;29.13
60170;BME280;46042;49.444;6.862;2022-07-18T07:53:52;99331.81;;;27.17;28.92
60170;BME280;46042;49.444;6.862;2022-07-18T07:56:18;99335.44;;;27.24;26.19
60170;BME280;46042;49.444;6.862;2022-07-18T07:58:46;99334.09;;;27.35;25.67
60170;BME280;46042;49.444;6.862;2022-07-18T08:01:13;99333.28;;;27.41;25.30
60170;BME280;46042;49.444;6.862;2022-07-18T08:03:43;99342.31;;;27.48;28.52
60170;BME280;46042;49.444;6.862;2022-07-18T08:06:11;99340.44;;;27.49;26.33
60170;BME280;46042;49.444;6.862;2022-07-18T08:08:38;99337.66;;;27.64;24.69
60170;BME280;46042;49.444;6.862;2022-07-18T08:11:04;99338.38;;;27.51;25.68
60170;BME280;46042;49.444;6.862;2022-07-18T08:13:31;99331.03;;;27.95;27.84
60170;BME280;46042;49.444;6.862;2022-07-18T08:15:58;99331.06;;;28.02;23.21
60170;BME280;46042;49.444;6.862;2022-07-18T08:18:25;99328.75;;;28.27;26.92
60170;BME280;46042;49.444;6.862;2022-07-18T08:20:51;99319.72;;;28.55;24.43
60170;BME280;46042;49.444;6.862;2022-07-18T08:23:18;99321.91;;;28.80;22.71
60170;BME280;46042;49.444;6.862;2022-07-18T08:25:45;99325.31;;;29.09;24.21
60170;BME280;46042;49.444;6.862;2022-07-18T08:28:13;99311.56;;;29.04;24.05
60170;BME280;46042;49.444;6.862;2022-07-18T08:30:40;99308.84;;;29.10;22.89
60170;BME280;46042;49.444;6.862;2022-07-18T08:33:07;99312.00;;;29.28;23.91
60170;BME280;46042;49.444;6.862;2022-07-18T08:35:35;99319.56;;;29.46;23.26
60170;BME280;46042;49.444;6.862;2022-07-18T08:38:02;99318.66;;;30.06;28.74
60170;BME280;46042;49.444;6.862;2022-07-18T08:40:29;99318.94;;;30.50;24.90
60170;BME280;46042;49.444;6.862;2022-07-18T08:42:57;99318.84;;;30.77;24.42
60170;BME280;46042;49.444;6.862;2022-07-18T08:45:45;99316.41;;;31.01;23.28
60170;BME280;46042;49.444;6.862;2022-07-18T08:48:14;99311.19;;;31.57;28.36
60170;BME280;46042;49.444;6.862;2022-07-18T08:50:46;99307.91;;;31.48;22.05
60170;BME280;46042;49.444;6.862;2022-07-18T08:53:15;99313.97;;;31.75;26.97
60170;BME280;46042;49.444;6.862;2022-07-18T08:55:43;99313.13;;;31.75;20.88
60170;BME280;46042;49.444;6.862;2022-07-18T08:58:10;99320.16;;;31.64;20.06
60170;BME280;46042;49.444;6.862;2022-07-18T09:00:59;99318.59;;;31.24;22.47
60170;BME280;46042;49.444;6.862;2022-07-18T09:03:26;99312.84;;;31.58;21.84
60170;BME280;46042;49.444;6.862;2022-07-18T09:06:04;99306.41;;;32.40;21.55
60170;BME280;46042;49.444;6.862;2022-07-18T09:08:31;99309.63;;;32.68;21.38
60170;BME280;46042;49.444;6.862;2022-07-18T09:11:00;99306.81;;;33.05;24.03
60170;BME280;46042;49.444;6.862;2022-07-18T09:16:08;99300.88;;;32.96;20.13
60170;BME280;46042;49.444;6.862;2022-07-18T09:18:37;99304.19;;;32.68;18.04
60170;BME280;46042;49.444;6.862;2022-07-18T09:21:07;99303.22;;;32.92;21.02
60170;BME280;46042;49.444;6.862;2022-07-18T09:23:36;99302.16;;;32.75;18.14
60170;BME280;46042;49.444;6.862;2022-07-18T09:26:03;99296.94;;;32.92;20.30
60170;BME280;46042;49.444;6.862;2022-07-18T09:28:50;99299.78;;;32.97;19.65
60170;BME280;46042;49.444;6.862;2022-07-18T09:31:37;99303.59;;;32.96;19.60
60170;BME280;46042;49.444;6.862;2022-07-18T09:34:04;99293.22;;;32.86;17.73
60170;BME280;46042;49.444;6.862;2022-07-18T09:36:31;99298.06;;;32.54;18.38
60170;BME280;46042;49.444;6.862;2022-07-18T09:39:23;99288.50;;;32.63;18.03
60170;BME280;46042;49.444;6.862;2022-07-18T09:41:50;99290.88;;;33.44;25.26
60170;BME280;46042;49.444;6.862;2022-07-18T09:44:18;99296.19;;;33.27;17.92
60170;BME280;46042;49.444;6.862;2022-07-18T09:47:04;99295.28;;;33.45;18.33
60170;BME280;46042;49.444;6.862;2022-07-18T09:49:32;99290.19;;;33.49;18.05
60170;BME280;46042;49.444;6.862;2022-07-18T09:52:05;99285.28;;;33.27;18.30
60170;BME280;46042;49.444;6.862;2022-07-18T09:54:40;99294.56;;;33.62;17.51
60170;BME280;46042;49.444;6.862;2022-07-18T09:57:08;99284.84;;;33.78;18.36
60170;BME280;46042;49.444;6.862;2022-07-18T09:59:36;99282.09;;;34.02;18.85
60170;BME280;46042;49.444;6.862;2022-07-18T10:02:06;99287.44;;;33.61;16.94
60170;BME280;46042;49.444;6.862;2022-07-18T10:04:33;99280.41;;;34.25;21.27
60170;BME280;46042;49.444;6.862;2022-07-18T10:07:00;99280.41;;;34.25;21.27
60170;BME280;46042;49.444;6.862;2022-07-18T10:09:27;62137.28;;;-147.77;100.00
60170;BME280;46042;49.444;6.862;2022-07-18T10:11:54;62137.28;;;-147.77;100.00
60170;BME280;46042;49.444;6.862;2022-07-18T10:14:29;62137.28;;;-147.77;100.00
60170;BME280;46042;49.444;6.862;2022-07-18T10:16:57;99280.41;;;-147.77;21.27
60170;BME280;46042;49.444;6.862;2022-07-18T10:19:25;99282.03;;;34.67;17.72
60170;BME280;46042;49.444;6.862;2022-07-18T10:21:53;99279.00;;;35.09;17.02
60170;BME280;46042;49.444;6.862;2022-07-18T10:24:21;99276.19;;;34.92;17.12
60170;BME280;46042;49.444;6.862;2022-07-18T10:27:13;99281.25;;;35.29;18.96
60170;BME280;46042;49.444;6.862;2022-07-18T10:30:01;99279.91;;;35.32;18.11
60170;BME280;46042;49.444;6.862;2022-07-18T10:32:33;99279.91;;;35.32;18.11
60170;BME280;46042;49.444;6.862;2022-07-18T10:35:00;99270.28;;;35.64;17.34
60170;BME280;46042;49.444;6.862;2022-07-18T10:37:31;99287.09;;;35.90;16.05
60170;BME280;46042;49.444;6.862;2022-07-18T10:40:37;99272.13;;;35.58;15.17
60170;BME280;46042;49.444;6.862;2022-07-18T10:46:00;99272.59;;;35.38;22.04
60170;BME280;46042;49.444;6.862;2022-07-18T10:51:09;99277.16;;;35.49;16.09
60170;BME280;46042;49.444;6.862;2022-07-18T10:59:19;62137.28;;;-147.77;100.00
60170;BME280;46042;49.444;6.862;2022-07-18T11:01:52;99267.03;;;37.06;14.83
60170;BME280;46042;49.444;6.862;2022-07-18T11:07:12;99252.31;;;37.17;17.41
60170;BME280;46042;49.444;6.862;2022-07-18T11:09:43;99259.53;;;37.28;16.13
60170;BME280;46042;49.444;6.862;2022-07-18T11:12:21;99254.13;;;37.87;18.88
60170;BME280;46042;49.444;6.862;2022-07-18T11:15:12;99255.19;;;38.39;22.17
60170;BME280;46042;49.444;6.862;2022-07-18T11:23:23;99249.91;;;38.22;16.68
60170;BME280;46042;49.444;6.862;2022-07-18T11:25:54;99260.03;;;38.01;14.61
60170;BME280;46042;49.444;6.862;2022-07-18T11:28:26;99261.16;;;38.16;15.61
60170;BME280;46042;49.444;6.862;2022-07-18T11:31:08;99256.28;;;37.37;13.33
60170;BME280;46042;49.444;6.862;2022-07-18T11:33:48;99243.59;;;36.98;14.68
60170;BME280;46042;49.444;6.862;2022-07-18T11:36:17;99249.34;;;36.96;16.94
60170;BME280;46042;49.444;6.862;2022-07-18T11:38:54;99244.78;;;37.40;15.09
60170;BME280;46042;49.444;6.862;2022-07-18T11:41:22;99239.16;;;38.16;15.80
60170;BME280;46042;49.444;6.862;2022-07-18T11:43:50;99234.84;;;38.51;15.52
60170;BME280;46042;49.444;6.862;2022-07-18T11:46:19;99236.59;;;37.93;17.88
60170;BME280;46042;49.444;6.862;2022-07-18T11:48:48;99237.53;;;38.25;22.57
60170;BME280;46042;49.444;6.862;2022-07-18T11:51:17;99227.19;;;38.84;13.70
60170;BME280;46042;49.444;6.862;2022-07-18T11:53:51;99226.13;;;38.95;14.51
60170;BME280;46042;49.444;6.862;2022-07-18T11:56:20;99235.16;;;38.60;12.39
60170;BME280;46042;49.444;6.862;2022-07-18T11:58:49;99229.88;;;37.74;12.67
60170;BME280;46042;49.444;6.862;2022-07-18T12:01:17;99220.28;;;38.45;15.01
60170;BME280;46042;49.444;6.862;2022-07-18T12:03:45;99216.59;;;38.08;12.31
60170;BME280;46042;49.444;6.862;2022-07-18T12:06:22;99215.28;;;38.42;13.61
60170;BME280;46042;49.444;6.862;2022-07-18T12:08:49;99218.53;;;38.13;13.02
60170;BME280;46042;49.444;6.862;2022-07-18T12:11:30;99214.47;;;38.41;17.27
60170;BME280;46042;49.444;6.862;2022-07-18T12:14:13;99222.78;;;38.73;16.96
60170;BME280;46042;49.444;6.862;2022-07-18T12:16:49;99210.97;;;39.08;13.72
60170;BME280;46042;49.444;6.862;2022-07-18T12:19:33;99209.31;;;39.07;12.64
60170;BME280;46042;49.444;6.862;2022-07-18T12:27:14;99198.03;;;38.88;13.13
60170;BME280;46042;49.444;6.862;2022-07-18T12:29:55;99197.75;;;38.79;12.97
60170;BME280;46042;49.444;6.862;2022-07-18T12:32:26;99203.53;;;39.14;13.88
60170;BME280;46042;49.444;6.862;2022-07-18T12:35:03;99204.63;;;39.18;12.81
60170;BME280;46042;49.444;6.862;2022-07-18T12:37:30;99201.84;;;39.34;13.44
60170;BME280;46042;49.444;6.862;2022-07-18T12:39:59;99192.22;;;39.10;12.68
60170;BME280;46042;49.444;6.862;2022-07-18T12:42:46;99191.31;;;39.62;13.24
60170;BME280;46042;49.444;6.862;2022-07-18T12:45:13;99202.03;;;39.68;12.37
60170;BME280;46042;49.444;6.862;2022-07-18T12:47:40;99192.44;;;39.61;12.69
60170;BME280;46042;49.444;6.862;2022-07-18T12:50:08;99191.75;;;39.95;17.32
60170;BME280;46042;49.444;6.862;2022-07-18T12:52:41;99192.69;;;40.25;12.97
60170;BME280;46042;49.444;6.862;2022-07-18T12:55:07;99188.19;;;40.39;12.99
60170;BME280;46042;49.444;6.862;2022-07-18T12:57:35;99182.81;;;40.59;12.52
60170;BME280;46042;49.444;6.862;2022-07-18T13:00:03;99176.63;;;40.77;12.61
60170;BME280;46042;49.444;6.862;2022-07-18T13:02:29;99176.84;;;40.46;12.10
60170;BME280;46042;49.444;6.862;2022-07-18T13:04:56;99175.66;;;40.58;12.29
60170;BME280;46042;49.444;6.862;2022-07-18T13:07:23;99172.69;;;40.49;11.49
60170;BME280;46042;49.444;6.862;2022-07-18T13:09:49;99172.19;;;40.42;11.54
60170;BME280;46042;49.444;6.862;2022-07-18T13:12:16;99171.06;;;39.92;12.21
60170;BME280;46042;49.444;6.862;2022-07-18T13:14:43;99168.22;;;39.42;11.34
60170;BME280;46042;49.444;6.862;2022-07-18T13:17:10;99160.78;;;39.37;13.32
60170;BME280;46042;49.444;6.862;2022-07-18T13:19:36;99166.09;;;38.87;12.09
60170;BME280;46042;49.444;6.862;2022-07-18T13:22:03;99163.91;;;38.94;15.89
60170;BME280;46042;49.444;6.862;2022-07-18T13:24:30;99152.53;;;39.32;12.62
60170;BME280;46042;49.444;6.862;2022-07-18T13:27:01;99151.72;;;39.97;12.69
60170;BME280;46042;49.444;6.862;2022-07-18T13:29:28;99147.28;;;40.07;13.30
60170;BME280;46042;49.444;6.862;2022-07-18T13:31:55;99156.78;;;40.35;11.41
60170;BME280;46042;49.444;6.862;2022-07-18T13:34:23;99140.81;;;40.62;13.16
60170;BME280;46042;49.444;6.862;2022-07-18T13:36:51;99151.38;;;40.89;14.64